TimeCST,TemperatureF,Dew PointF,Humidity,Sea Level PressureIn,VisibilityMPH,Wind Direction,Wind SpeedMPH,Gust SpeedMPH,PrecipitationIn,Events,Conditions,WindDirDegrees,DateUTC
12:13 AM,6.8,1.4,79,30.23,10.0,WSW,4.6,-,N/A,,Scattered Clouds,250,2013-01-15 06:13:00
12:33 AM,5.0,1.4,85,30.22,10.0,Calm,Calm,-,N/A,,Scattered Clouds,0,2013-01-15 06:33:00
12:54 AM,5.0,1.4,85,30.22,10.0,Calm,Calm,-,N/A,,Mostly Cloudy,0,2013-01-15 06:54:00
1:33 AM,3.2,1.4,92,30.21,10.0,Calm,Calm,-,N/A,,Mostly Cloudy,0,2013-01-15 07:33:00
1:53 AM,3.2,-0.4,85,30.21,10.0,Calm,Calm,-,N/A,,Scattered Clouds,0,2013-01-15 07:53:00
2:13 AM,3.2,-0.4,85,30.21,10.0,SSW,4.6,-,N/A,,Clear,200,2013-01-15 08:13:00
2:33 AM,3.2,1.4,92,30.21,10.0,SSW,4.6,-,N/A,,Mostly Cloudy,210,2013-01-15 08:33:00
2:53 AM,3.2,-0.4,85,30.21,10.0,Calm,Calm,-,N/A,,Overcast,0,2013-01-15 08:53:00
3:13 AM,3.2,-0.4,85,30.20,10.0,South,3.5,-,N/A,,Overcast,180,2013-01-15 09:13:00
3:34 AM,3.2,1.4,92,30.19,10.0,SSE,4.6,-,N/A,,Overcast,160,2013-01-15 09:34:00
3:54 AM,5.0,1.4,85,30.19,10.0,Calm,Calm,-,N/A,,Overcast,0,2013-01-15 09:54:00
4:13 AM,6.8,3.2,85,30.19,10.0,SSE,4.6,-,N/A,,Overcast,160,2013-01-15 10:13:00
4:33 AM,6.8,3.2,85,30.17,10.0,SSE,3.5,-,N/A,,Overcast,160,2013-01-15 10:33:00
5:13 AM,8.6,3.2,79,30.15,10.0,Calm,Calm,-,N/A,,Overcast,0,2013-01-15 11:13:00
5:34 AM,8.6,5.0,85,30.13,10.0,SSE,5.8,-,N/A,,Overcast,150,2013-01-15 11:34:00
5:54 AM,8.6,5.0,85,30.13,10.0,SE,5.8,-,N/A,,Overcast,140,2013-01-15 11:54:00
6:13 AM,8.6,5.0,85,30.14,10.0,Calm,Calm,-,N/A,,Overcast,0,2013-01-15 12:13:00
6:33 AM,8.6,5.0,85,30.13,10.0,SSE,4.6,-,N/A,,Overcast,150,2013-01-15 12:33:00
6:53 AM,10.4,5.0,79,30.14,10.0,SE,3.5,-,N/A,,Overcast,140,2013-01-15 12:53:00
7:14 AM,10.4,5.0,79,30.13,10.0,SE,4.6,-,N/A,,Overcast,130,2013-01-15 13:14:00
7:33 AM,8.6,5.0,85,30.13,10.0,SE,6.9,-,N/A,,Overcast,140,2013-01-15 13:33:00
7:53 AM,8.6,5.0,85,30.13,10.0,SSE,4.6,-,N/A,,Mostly Cloudy,160,2013-01-15 13:53:00
8:14 AM,8.6,3.2,79,30.14,10.0,SSE,3.5,-,N/A,,Mostly Cloudy,160,2013-01-15 14:14:00
8:33 AM,8.6,3.2,79,30.13,10.0,SSE,5.8,-,N/A,,Scattered Clouds,160,2013-01-15 14:33:00
8:53 AM,10.4,3.2,73,30.13,10.0,SSE,6.9,-,N/A,,Clear,150,2013-01-15 14:53:00
9:13 AM,10.4,3.2,73,30.13,10.0,SSE,8.1,-,N/A,,Clear,160,2013-01-15 15:13:00
9:33 AM,10.4,3.2,73,30.13,10.0,South,6.9,-,N/A,,Clear,170,2013-01-15 15:33:00
9:53 AM,12.2,3.2,67,30.12,10.0,SSW,8.1,-,N/A,,Clear,200,2013-01-15 15:53:00
10:13 AM,12.2,3.2,67,30.12,10.0,SSW,8.1,-,N/A,,Clear,200,2013-01-15 16:13:00
10:33 AM,14.0,5.0,67,30.11,10.0,South,5.8,-,N/A,,Clear,190,2013-01-15 16:33:00
10:53 AM,15.8,5.0,62,30.10,10.0,South,8.1,-,N/A,,Clear,190,2013-01-15 16:53:00
11:13 AM,15.8,6.8,68,30.09,10.0,SSW,9.2,-,N/A,,Clear,200,2013-01-15 17:13:00
11:33 AM,17.6,6.8,63,30.08,10.0,SSW,8.1,-,N/A,,Clear,210,2013-01-15 17:33:00
11:53 AM,19.4,6.8,58,30.06,10.0,SSW,10.4,-,N/A,,Clear,210,2013-01-15 17:53:00
12:13 PM,19.4,6.8,58,30.05,10.0,SSW,10.4,-,N/A,,Clear,200,2013-01-15 18:13:00
12:33 PM,21.2,8.6,58,30.04,10.0,SSW,12.7,-,N/A,,Clear,200,2013-01-15 18:33:00
12:53 PM,21.2,8.6,58,30.03,10.0,SSW,11.5,-,N/A,,Clear,200,2013-01-15 18:53:00
1:13 PM,21.2,10.4,63,30.02,10.0,SSW,11.5,-,N/A,,Clear,210,2013-01-15 19:13:00
1:33 PM,23.0,10.4,59,30.01,10.0,SSW,12.7,-,N/A,,Clear,210,2013-01-15 19:33:00
1:53 PM,23.0,10.4,59,30.00,10.0,SSW,9.2,-,N/A,,Clear,200,2013-01-15 19:53:00
2:13 PM,23.0,8.6,54,29.99,10.0,SSW,11.5,-,N/A,,Clear,210,2013-01-15 20:13:00
2:34 PM,23.0,10.4,59,29.99,10.0,SSW,9.2,-,N/A,,Clear,210,2013-01-15 20:34:00
2:53 PM,23.0,10.4,59,29.99,10.0,SSW,10.4,-,N/A,,Clear,200,2013-01-15 20:53:00
3:33 PM,23.0,12.2,63,29.99,10.0,South,9.2,-,N/A,,Clear,190,2013-01-15 21:33:00
3:54 PM,21.2,12.2,68,29.99,10.0,SSW,9.2,-,N/A,,Clear,200,2013-01-15 21:54:00
4:14 PM,21.2,12.2,68,29.99,10.0,South,10.4,-,N/A,,Clear,190,2013-01-15 22:14:00
4:54 PM,21.2,12.2,68,29.97,10.0,South,11.5,-,N/A,,Clear,190,2013-01-15 22:54:00
5:14 PM,21.2,12.2,68,29.96,10.0,SSW,9.2,-,N/A,,Clear,200,2013-01-15 23:14:00
5:33 PM,19.4,12.2,74,29.96,10.0,South,9.2,-,N/A,,Clear,190,2013-01-15 23:33:00
5:53 PM,19.4,12.2,74,29.95,10.0,South,9.2,-,N/A,,Clear,190,2013-01-15 23:53:00
6:13 PM,19.4,10.4,68,29.94,10.0,SSW,10.4,-,N/A,,Clear,200,2013-01-16 00:13:00
6:33 PM,19.4,10.4,68,29.92,10.0,SSW,9.2,-,N/A,,Clear,200,2013-01-16 00:33:00
6:53 PM,19.4,10.4,68,29.91,10.0,SSW,11.5,-,N/A,,Clear,200,2013-01-16 00:53:00
7:14 PM,19.4,10.4,68,29.90,10.0,South,11.5,-,N/A,,Clear,190,2013-01-16 01:14:00
7:34 PM,19.4,10.4,68,29.88,10.0,South,11.5,-,N/A,,Clear,190,2013-01-16 01:34:00
7:53 PM,19.4,12.2,74,29.87,10.0,SSW,9.2,-,N/A,,Clear,200,2013-01-16 01:53:00
8:13 PM,19.4,12.2,74,29.86,10.0,SSW,10.4,-,N/A,,Clear,200,2013-01-16 02:13:00
8:33 PM,21.2,12.2,68,29.85,10.0,SSW,10.4,-,N/A,,Clear,200,2013-01-16 02:33:00
8:54 PM,21.2,12.2,68,29.83,10.0,SSW,12.7,-,N/A,,Scattered Clouds,200,2013-01-16 02:54:00
9:13 PM,21.2,12.2,68,29.82,10.0,SSW,11.5,-,N/A,,Overcast,210,2013-01-16 03:13:00
9:33 PM,23.0,12.2,63,29.81,10.0,SSW,11.5,-,N/A,,Overcast,200,2013-01-16 03:33:00
9:53 PM,23.0,12.2,63,29.79,10.0,SSW,12.7,-,N/A,,Overcast,200,2013-01-16 03:53:00
10:14 PM,24.8,12.2,59,29.76,10.0,SSW,13.8,-,N/A,,Overcast,200,2013-01-16 04:14:00
10:33 PM,24.8,12.2,59,29.75,10.0,SSW,13.8,-,N/A,,Scattered Clouds,200,2013-01-16 04:33:00
10:53 PM,24.8,12.2,59,29.74,10.0,SSW,11.5,-,N/A,,Mostly Cloudy,200,2013-01-16 04:53:00
11:13 PM,24.8,15.8,69,29.73,10.0,SSW,10.4,-,N/A,Snow,Light Snow,210,2013-01-16 05:13:00
11:33 PM,26.6,19.4,74,29.72,5.0,SSW,15.0,18.4,N/A,Snow,Light Snow,210,2013-01-16 05:33:00
11:53 PM,26.6,21.2,80,29.70,10.0,SW,13.8,-,N/A,Snow,Light Snow,220,2013-01-16 05:53:00